Marysville, KS

10:53 PM CDT on July 23, 2016 (GMT -0500)
N0NB | | Change Station

Elev 1318 ft 39.91 °N, 96.77 °W | Updated 1 second ago

Clear
Clear
86.5 °F
Feels Like 92 °F
N
4.0
Wind Variable Wind from SSW
Gusts 12.0 mph

Today
High -- | Low -- °F
--% Chance of Precip.
Yesterday
High -- | Low -- °F
Precip. -- in
Pressure 29.82 in
Visibility 10.0 miles
Clouds Clear
Heat Index 92 °F
Dew Point 71 °F
Humidity 61%
Rainfall in
Snow Depth Not available.
6:17 AM 8:47 PM
Waning Gibbous, 80% visible
METAR KBIE 240335Z AUTO 17009KT 10SM CLR 30/22 A2982 RMK AO2 LTG DSNT SW T02970215
Pressure 29.82 in
Visibility 10.0 miles
Clouds Clear
Heat Index 92 °F
Dew Point 71 °F
Humidity 61%
Rainfall in
Snow Depth Not available.
6:17 AM 8:47 PM
Waning Gibbous, 80% visible
METAR KBIE 240335Z AUTO 17009KT 10SM CLR 30/22 A2982 RMK AO2 LTG DSNT SW T02970215

10-Day Weather Forecast

Almanac

Astronomy

Jul. 23, 2016 Rise Set
Actual Time
Civil Twilight
Nautical Twilight
Astronomical Twilight
Moon
Length of Visible Light
Length of Day
Tomorrow will be .
, % of the Moon is Illuminated

Today's Extremes

State Highs State Lows

Community

WunderPhotos

Upload Photos

1,927,022 photos uploaded!

WunderBlog® & News

Nearby

Air Quality

  Air Quality AQ Index Pollutant
Not available.

Snow Depth

Station Depth Elevation

Earthquake Activity

City Distance Mag. Time & Date
Minimum magnitude displayed is 2.5.

Coastal Water Temperatures

Place Temperature

Stations

Nearby Weather Stations

Station Location Temp. Windchill Dew Point Humidity Wind Precip. Elev Updated Type
                   

Watches & Warnings

There are currently no watches in effect.